sensor_id;sensor_type;location;lat;lon;timestamp;P1;durP1;ratioP1;P2;durP2;ratioP2
17854;SDS011;9053;53.358;6.382;2023-03-01T00:00:35;10.43;;;6.87;;
17854;SDS011;9053;53.358;6.382;2023-03-01T00:03:07;8.37;;;6.73;;
17854;SDS011;9053;53.358;6.382;2023-03-01T00:05:42;9.93;;;7.23;;
17854;SDS011;9053;53.358;6.382;2023-03-01T00:08:13;10.97;;;7.97;;
17854;SDS011;9053;53.358;6.382;2023-03-01T00:10:43;8.67;;;7.13;;
17854;SDS011;9053;53.358;6.382;2023-03-01T00:13:12;10.50;;;7.70;;
17854;SDS011;9053;53.358;6.382;2023-03-01T00:15:42;10.90;;;7.47;;
17854;SDS011;9053;53.358;6.382;2023-03-01T00:18:14;10.47;;;7.80;;
17854;SDS011;9053;53.358;6.382;2023-03-01T00:20:48;9.73;;;7.17;;
17854;SDS011;9053;53.358;6.382;2023-03-01T00:23:19;8.87;;;7.73;;
17854;SDS011;9053;53.358;6.382;2023-03-01T00:25:49;10.10;;;7.37;;
17854;SDS011;9053;53.358;6.382;2023-03-01T00:28:19;9.57;;;7.03;;
17854;SDS011;9053;53.358;6.382;2023-03-01T00:30:49;12.00;;;7.73;;
17854;SDS011;9053;53.358;6.382;2023-03-01T00:33:21;10.13;;;7.27;;
17854;SDS011;9053;53.358;6.382;2023-03-01T00:35:51;9.23;;;6.73;;
17854;SDS011;9053;53.358;6.382;2023-03-01T00:38:21;8.90;;;6.67;;
17854;SDS011;9053;53.358;6.382;2023-03-01T00:40:51;6.10;;;4.60;;
17854;SDS011;9053;53.358;6.382;2023-03-01T00:43:21;5.20;;;4.70;;
17854;SDS011;9053;53.358;6.382;2023-03-01T00:45:50;8.40;;;6.40;;
17854;SDS011;9053;53.358;6.382;2023-03-01T00:48:23;6.80;;;4.90;;
17854;SDS011;9053;53.358;6.382;2023-03-01T00:50:53;6.70;;;5.47;;
17854;SDS011;9053;53.358;6.382;2023-03-01T00:53:25;6.23;;;5.30;;
17854;SDS011;9053;53.358;6.382;2023-03-01T00:55:56;7.50;;;6.00;;
17854;SDS011;9053;53.358;6.382;2023-03-01T00:58:26;7.00;;;5.83;;
17854;SDS011;9053;53.358;6.382;2023-03-01T01:00:56;9.50;;;6.40;;
17854;SDS011;9053;53.358;6.382;2023-03-01T01:03:28;10.07;;;6.73;;
17854;SDS011;9053;53.358;6.382;2023-03-01T01:05:58;13.73;;;7.37;;
17854;SDS011;9053;53.358;6.382;2023-03-01T01:08:35;13.80;;;7.63;;
17854;SDS011;9053;53.358;6.382;2023-03-01T01:11:08;11.60;;;7.43;;
17854;SDS011;9053;53.358;6.382;2023-03-01T01:13:38;8.10;;;6.50;;
17854;SDS011;9053;53.358;6.382;2023-03-01T01:16:08;8.37;;;6.77;;
17854;SDS011;9053;53.358;6.382;2023-03-01T01:18:41;10.60;;;7.87;;
17854;SDS011;9053;53.358;6.382;2023-03-01T01:21:12;11.60;;;7.53;;
17854;SDS011;9053;53.358;6.382;2023-03-01T01:23:44;10.00;;;6.50;;
17854;SDS011;9053;53.358;6.382;2023-03-01T01:26:16;10.23;;;7.20;;
17854;SDS011;9053;53.358;6.382;2023-03-01T01:28:47;10.20;;;7.03;;
17854;SDS011;9053;53.358;6.382;2023-03-01T01:31:17;11.47;;;6.67;;
17854;SDS011;9053;53.358;6.382;2023-03-01T01:33:54;7.17;;;5.97;;
17854;SDS011;9053;53.358;6.382;2023-03-01T01:36:24;7.20;;;5.37;;
17854;SDS011;9053;53.358;6.382;2023-03-01T01:45:37;5.73;;;5.03;;
17854;SDS011;9053;53.358;6.382;2023-03-01T01:48:12;6.17;;;5.00;;
17854;SDS011;9053;53.358;6.382;2023-03-01T01:50:49;5.67;;;4.73;;
17854;SDS011;9053;53.358;6.382;2023-03-01T01:53:24;7.60;;;5.87;;
17854;SDS011;9053;53.358;6.382;2023-03-01T01:55:56;6.70;;;5.50;;
17854;SDS011;9053;53.358;6.382;2023-03-01T01:58:29;5.07;;;4.47;;
17854;SDS011;9053;53.358;6.382;2023-03-01T02:00:59;7.20;;;4.57;;
17854;SDS011;9053;53.358;6.382;2023-03-01T02:03:31;6.60;;;5.00;;
17854;SDS011;9053;53.358;6.382;2023-03-01T02:06:07;4.97;;;4.47;;
17854;SDS011;9053;53.358;6.382;2023-03-01T02:08:44;5.23;;;4.43;;
17854;SDS011;9053;53.358;6.382;2023-03-01T02:11:18;3.90;;;3.50;;
17854;SDS011;9053;53.358;6.382;2023-03-01T02:13:48;4.77;;;3.97;;
17854;SDS011;9053;53.358;6.382;2023-03-01T02:16:18;6.10;;;5.40;;
17854;SDS011;9053;53.358;6.382;2023-03-01T02:18:48;7.00;;;5.10;;
17854;SDS011;9053;53.358;6.382;2023-03-01T02:21:29;5.20;;;4.37;;
17854;SDS011;9053;53.358;6.382;2023-03-01T02:24:07;6.70;;;5.00;;
17854;SDS011;9053;53.358;6.382;2023-03-01T02:26:50;5.27;;;3.97;;
17854;SDS011;9053;53.358;6.382;2023-03-01T02:29:24;7.73;;;4.50;;
17854;SDS011;9053;53.358;6.382;2023-03-01T02:31:56;12.07;;;4.73;;
17854;SDS011;9053;53.358;6.382;2023-03-01T02:34:29;12.80;;;4.60;;
17854;SDS011;9053;53.358;6.382;2023-03-01T02:37:01;80.97;;;6.87;;
17854;SDS011;9053;53.358;6.382;2023-03-01T02:39:33;10.47;;;4.97;;
17854;SDS011;9053;53.358;6.382;2023-03-01T02:42:09;10.03;;;4.90;;
17854;SDS011;9053;53.358;6.382;2023-03-01T02:44:44;7.43;;;4.97;;
17854;SDS011;9053;53.358;6.382;2023-03-01T02:47:14;60.30;;;6.97;;
17854;SDS011;9053;53.358;6.382;2023-03-01T02:49:43;12.33;;;5.60;;
17854;SDS011;9053;53.358;6.382;2023-03-01T02:52:20;25.93;;;6.77;;
17854;SDS011;9053;53.358;6.382;2023-03-01T02:55:00;16.50;;;6.20;;
17854;SDS011;9053;53.358;6.382;2023-03-01T02:57:35;17.07;;;6.33;;
17854;SDS011;9053;53.358;6.382;2023-03-01T03:00:13;9.07;;;6.53;;
17854;SDS011;9053;53.358;6.382;2023-03-01T03:02:49;9.27;;;5.83;;
17854;SDS011;9053;53.358;6.382;2023-03-01T03:05:20;7.90;;;6.40;;
17854;SDS011;9053;53.358;6.382;2023-03-01T03:07:52;10.97;;;6.63;;
17854;SDS011;9053;53.358;6.382;2023-03-01T03:10:34;10.60;;;6.83;;
17854;SDS011;9053;53.358;6.382;2023-03-01T03:13:06;13.83;;;6.87;;
17854;SDS011;9053;53.358;6.382;2023-03-01T03:15:41;14.97;;;7.83;;
17854;SDS011;9053;53.358;6.382;2023-03-01T03:18:12;12.77;;;7.33;;
17854;SDS011;9053;53.358;6.382;2023-03-01T03:20:47;9.77;;;7.20;;
17854;SDS011;9053;53.358;6.382;2023-03-01T03:23:19;13.63;;;7.33;;
17854;SDS011;9053;53.358;6.382;2023-03-01T03:25:50;12.37;;;7.03;;
17854;SDS011;9053;53.358;6.382;2023-03-01T03:28:20;22.13;;;8.40;;
17854;SDS011;9053;53.358;6.382;2023-03-01T03:30:52;22.60;;;7.50;;
17854;SDS011;9053;53.358;6.382;2023-03-01T03:33:22;24.43;;;7.57;;
17854;SDS011;9053;53.358;6.382;2023-03-01T03:35:52;20.70;;;7.07;;
17854;SDS011;9053;53.358;6.382;2023-03-01T03:38:22;26.23;;;7.37;;
17854;SDS011;9053;53.358;6.382;2023-03-01T03:40:58;11.73;;;7.60;;
17854;SDS011;9053;53.358;6.382;2023-03-01T03:43:30;10.73;;;6.77;;
17854;SDS011;9053;53.358;6.382;2023-03-01T03:46:04;12.13;;;7.23;;
17854;SDS011;9053;53.358;6.382;2023-03-01T03:48:35;11.93;;;7.10;;
17854;SDS011;9053;53.358;6.382;2023-03-01T03:51:06;9.77;;;7.10;;
17854;SDS011;9053;53.358;6.382;2023-03-01T03:53:38;9.10;;;7.10;;
17854;SDS011;9053;53.358;6.382;2023-03-01T03:56:09;8.07;;;6.67;;
17854;SDS011;9053;53.358;6.382;2023-03-01T03:58:40;8.00;;;6.20;;
17854;SDS011;9053;53.358;6.382;2023-03-01T04:01:12;7.97;;;6.40;;
17854;SDS011;9053;53.358;6.382;2023-03-01T04:03:42;7.10;;;5.87;;
17854;SDS011;9053;53.358;6.382;2023-03-01T04:06:13;8.63;;;6.63;;
17854;SDS011;9053;53.358;6.382;2023-03-01T04:08:43;7.33;;;6.17;;
17854;SDS011;9053;53.358;6.382;2023-03-01T04:11:12;7.43;;;6.20;;
17854;SDS011;9053;53.358;6.382;2023-03-01T04:13:57;7.80;;;6.07;;
17854;SDS011;9053;53.358;6.382;2023-03-01T04:16:30;7.87;;;6.03;;
17854;SDS011;9053;53.358;6.382;2023-03-01T04:19:00;7.73;;;6.30;;
17854;SDS011;9053;53.358;6.382;2023-03-01T04:21:30;7.33;;;6.40;;
17854;SDS011;9053;53.358;6.382;2023-03-01T04:23:59;7.33;;;6.00;;
17854;SDS011;9053;53.358;6.382;2023-03-01T04:26:30;8.77;;;6.20;;
17854;SDS011;9053;53.358;6.382;2023-03-01T04:28:59;6.47;;;5.77;;
17854;SDS011;9053;53.358;6.382;2023-03-01T04:31:32;7.87;;;5.80;;
17854;SDS011;9053;53.358;6.382;2023-03-01T04:34:02;8.43;;;6.33;;
17854;SDS011;9053;53.358;6.382;2023-03-01T04:36:31;8.53;;;6.30;;
17854;SDS011;9053;53.358;6.382;2023-03-01T04:39:02;8.20;;;6.60;;
17854;SDS011;9053;53.358;6.382;2023-03-01T04:41:38;9.43;;;6.50;;
17854;SDS011;9053;53.358;6.382;2023-03-01T04:44:09;11.30;;;7.50;;
17854;SDS011;9053;53.358;6.382;2023-03-01T04:46:42;10.67;;;7.37;;
17854;SDS011;9053;53.358;6.382;2023-03-01T04:49:11;9.10;;;6.57;;
17854;SDS011;9053;53.358;6.382;2023-03-01T04:51:42;7.97;;;6.00;;
17854;SDS011;9053;53.358;6.382;2023-03-01T04:54:13;8.67;;;6.97;;
17854;SDS011;9053;53.358;6.382;2023-03-01T04:56:45;9.00;;;6.63;;
17854;SDS011;9053;53.358;6.382;2023-03-01T04:59:15;8.37;;;6.80;;
17854;SDS011;9053;53.358;6.382;2023-03-01T05:01:53;8.33;;;7.10;;
17854;SDS011;9053;53.358;6.382;2023-03-01T05:04:26;8.33;;;6.43;;
17854;SDS011;9053;53.358;6.382;2023-03-01T05:06:56;8.17;;;6.80;;
17854;SDS011;9053;53.358;6.382;2023-03-01T05:09:26;8.70;;;7.03;;
17854;SDS011;9053;53.358;6.382;2023-03-01T05:11:56;8.77;;;7.23;;
17854;SDS011;9053;53.358;6.382;2023-03-01T05:14:26;9.30;;;7.27;;
17854;SDS011;9053;53.358;6.382;2023-03-01T05:16:58;8.27;;;6.60;;
17854;SDS011;9053;53.358;6.382;2023-03-01T05:19:30;7.97;;;6.53;;
17854;SDS011;9053;53.358;6.382;2023-03-01T05:22:00;8.10;;;6.57;;
17854;SDS011;9053;53.358;6.382;2023-03-01T05:24:33;8.17;;;6.13;;
17854;SDS011;9053;53.358;6.382;2023-03-01T05:27:05;8.87;;;7.23;;
17854;SDS011;9053;53.358;6.382;2023-03-01T05:29:35;8.27;;;7.00;;
17854;SDS011;9053;53.358;6.382;2023-03-01T05:32:08;8.43;;;7.10;;
17854;SDS011;9053;53.358;6.382;2023-03-01T05:34:42;8.33;;;6.13;;
17854;SDS011;9053;53.358;6.382;2023-03-01T05:37:12;11.80;;;9.90;;
17854;SDS011;9053;53.358;6.382;2023-03-01T05:39:43;9.03;;;7.70;;
17854;SDS011;9053;53.358;6.382;2023-03-01T05:42:15;9.87;;;7.97;;
17854;SDS011;9053;53.358;6.382;2023-03-01T05:44:46;8.97;;;6.67;;
17854;SDS011;9053;53.358;6.382;2023-03-01T05:47:18;8.50;;;6.77;;
17854;SDS011;9053;53.358;6.382;2023-03-01T05:49:48;8.03;;;6.13;;
17854;SDS011;9053;53.358;6.382;2023-03-01T05:52:18;7.70;;;6.50;;
17854;SDS011;9053;53.358;6.382;2023-03-01T05:54:48;8.37;;;6.30;;
17854;SDS011;9053;53.358;6.382;2023-03-01T05:57:18;8.27;;;6.80;;
17854;SDS011;9053;53.358;6.382;2023-03-01T05:59:48;7.87;;;6.37;;
17854;SDS011;9053;53.358;6.382;2023-03-01T06:02:20;8.03;;;7.13;;
17854;SDS011;9053;53.358;6.382;2023-03-01T06:04:50;7.90;;;5.93;;
17854;SDS011;9053;53.358;6.382;2023-03-01T06:07:20;8.27;;;6.03;;
17854;SDS011;9053;53.358;6.382;2023-03-01T06:09:50;7.97;;;6.17;;
17854;SDS011;9053;53.358;6.382;2023-03-01T06:12:20;7.53;;;5.90;;
17854;SDS011;9053;53.358;6.382;2023-03-01T06:14:50;6.63;;;5.80;;
17854;SDS011;9053;53.358;6.382;2023-03-01T06:17:23;8.13;;;6.30;;
17854;SDS011;9053;53.358;6.382;2023-03-01T06:19:52;7.80;;;6.20;;
17854;SDS011;9053;53.358;6.382;2023-03-01T06:22:22;7.43;;;5.93;;
17854;SDS011;9053;53.358;6.382;2023-03-01T06:24:52;10.67;;;7.00;;
17854;SDS011;9053;53.358;6.382;2023-03-01T06:27:22;7.50;;;5.93;;
17854;SDS011;9053;53.358;6.382;2023-03-01T06:29:52;9.13;;;6.60;;
17854;SDS011;9053;53.358;6.382;2023-03-01T06:32:24;8.40;;;6.50;;
17854;SDS011;9053;53.358;6.382;2023-03-01T06:34:54;7.63;;;5.57;;
17854;SDS011;9053;53.358;6.382;2023-03-01T06:37:25;7.33;;;6.10;;
17854;SDS011;9053;53.358;6.382;2023-03-01T06:39:55;8.33;;;6.03;;
17854;SDS011;9053;53.358;6.382;2023-03-01T06:42:24;7.07;;;5.47;;
17854;SDS011;9053;53.358;6.382;2023-03-01T06:44:54;6.77;;;5.43;;
17854;SDS011;9053;53.358;6.382;2023-03-01T06:47:27;7.10;;;5.47;;
17854;SDS011;9053;53.358;6.382;2023-03-01T06:49:56;7.93;;;6.03;;
17854;SDS011;9053;53.358;6.382;2023-03-01T06:52:26;7.63;;;5.53;;
17854;SDS011;9053;53.358;6.382;2023-03-01T06:54:56;6.80;;;5.37;;
17854;SDS011;9053;53.358;6.382;2023-03-01T06:57:26;7.23;;;6.37;;
17854;SDS011;9053;53.358;6.382;2023-03-01T06:59:56;7.83;;;6.10;;
17854;SDS011;9053;53.358;6.382;2023-03-01T07:02:28;9.60;;;7.30;;
17854;SDS011;9053;53.358;6.382;2023-03-01T07:04:58;7.37;;;6.07;;
17854;SDS011;9053;53.358;6.382;2023-03-01T07:07:28;7.70;;;6.40;;
17854;SDS011;9053;53.358;6.382;2023-03-01T07:09:58;9.40;;;7.07;;
17854;SDS011;9053;53.358;6.382;2023-03-01T07:12:28;9.13;;;6.83;;
17854;SDS011;9053;53.358;6.382;2023-03-01T07:14:58;6.50;;;5.80;;
17854;SDS011;9053;53.358;6.382;2023-03-01T07:17:36;6.97;;;5.77;;
17854;SDS011;9053;53.358;6.382;2023-03-01T07:20:06;7.70;;;6.20;;
17854;SDS011;9053;53.358;6.382;2023-03-01T07:22:36;7.93;;;5.83;;
17854;SDS011;9053;53.358;6.382;2023-03-01T07:25:09;8.47;;;6.30;;
17854;SDS011;9053;53.358;6.382;2023-03-01T07:27:39;7.63;;;6.03;;
17854;SDS011;9053;53.358;6.382;2023-03-01T07:30:09;7.60;;;6.23;;
17854;SDS011;9053;53.358;6.382;2023-03-01T07:32:42;7.53;;;6.37;;
17854;SDS011;9053;53.358;6.382;2023-03-01T07:35:12;8.07;;;6.50;;
17854;SDS011;9053;53.358;6.382;2023-03-01T07:37:45;10.70;;;7.47;;
17854;SDS011;9053;53.358;6.382;2023-03-01T07:40:15;11.23;;;8.63;;
17854;SDS011;9053;53.358;6.382;2023-03-01T07:42:45;9.87;;;8.27;;
17854;SDS011;9053;53.358;6.382;2023-03-01T07:45:15;9.87;;;7.70;;
17854;SDS011;9053;53.358;6.382;2023-03-01T07:47:49;8.70;;;6.40;;
17854;SDS011;9053;53.358;6.382;2023-03-01T07:50:20;9.00;;;6.53;;
17854;SDS011;9053;53.358;6.382;2023-03-01T07:52:50;8.83;;;6.20;;
17854;SDS011;9053;53.358;6.382;2023-03-01T07:55:20;8.80;;;6.83;;
17854;SDS011;9053;53.358;6.382;2023-03-01T07:57:50;7.93;;;6.37;;
17854;SDS011;9053;53.358;6.382;2023-03-01T08:00:20;8.80;;;6.63;;
17854;SDS011;9053;53.358;6.382;2023-03-01T08:02:53;9.80;;;6.70;;
17854;SDS011;9053;53.358;6.382;2023-03-01T08:05:25;7.43;;;6.10;;
17854;SDS011;9053;53.358;6.382;2023-03-01T08:07:55;7.37;;;5.90;;
17854;SDS011;9053;53.358;6.382;2023-03-01T08:10:25;8.87;;;6.47;;
17854;SDS011;9053;53.358;6.382;2023-03-01T08:12:55;7.63;;;6.80;;
17854;SDS011;9053;53.358;6.382;2023-03-01T08:15:25;9.07;;;7.03;;
17854;SDS011;9053;53.358;6.382;2023-03-01T08:20:55;10.20;;;7.70;;
17854;SDS011;9053;53.358;6.382;2023-03-01T08:23:39;10.80;;;7.77;;
17854;SDS011;9053;53.358;6.382;2023-03-01T08:26:11;11.53;;;8.60;;
17854;SDS011;9053;53.358;6.382;2023-03-01T08:28:54;11.83;;;9.83;;
17854;SDS011;9053;53.358;6.382;2023-03-01T08:31:39;12.43;;;9.47;;
17854;SDS011;9053;53.358;6.382;2023-03-01T08:34:15;12.70;;;9.80;;
17854;SDS011;9053;53.358;6.382;2023-03-01T08:36:46;10.97;;;8.27;;
17854;SDS011;9053;53.358;6.382;2023-03-01T08:39:18;11.77;;;9.23;;
17854;SDS011;9053;53.358;6.382;2023-03-01T08:41:49;11.27;;;8.70;;
17854;SDS011;9053;53.358;6.382;2023-03-01T08:44:19;11.40;;;9.20;;
17854;SDS011;9053;53.358;6.382;2023-03-01T08:46:50;11.73;;;8.83;;
17854;SDS011;9053;53.358;6.382;2023-03-01T08:49:24;12.27;;;9.37;;
17854;SDS011;9053;53.358;6.382;2023-03-01T08:51:54;12.20;;;9.30;;
17854;SDS011;9053;53.358;6.382;2023-03-01T08:54:24;14.23;;;10.10;;
17854;SDS011;9053;53.358;6.382;2023-03-01T08:56:54;15.17;;;10.90;;
17854;SDS011;9053;53.358;6.382;2023-03-01T08:59:25;16.50;;;11.30;;
17854;SDS011;9053;53.358;6.382;2023-03-01T09:01:56;17.40;;;11.73;;
17854;SDS011;9053;53.358;6.382;2023-03-01T09:04:28;17.80;;;12.73;;
17854;SDS011;9053;53.358;6.382;2023-03-01T09:06:59;17.40;;;12.07;;
17854;SDS011;9053;53.358;6.382;2023-03-01T09:09:29;16.17;;;11.60;;
17854;SDS011;9053;53.358;6.382;2023-03-01T09:12:00;19.00;;;12.80;;
17854;SDS011;9053;53.358;6.382;2023-03-01T09:14:36;21.50;;;12.70;;
17854;SDS011;9053;53.358;6.382;2023-03-01T09:17:09;18.73;;;12.83;;
17854;SDS011;9053;53.358;6.382;2023-03-01T09:19:41;16.33;;;11.83;;
17854;SDS011;9053;53.358;6.382;2023-03-01T09:22:11;15.60;;;11.13;;
17854;SDS011;9053;53.358;6.382;2023-03-01T09:24:41;17.67;;;12.23;;
17854;SDS011;9053;53.358;6.382;2023-03-01T09:27:11;15.87;;;11.80;;
17854;SDS011;9053;53.358;6.382;2023-03-01T09:29:41;17.13;;;12.47;;
17854;SDS011;9053;53.358;6.382;2023-03-01T09:32:10;18.97;;;13.57;;
17854;SDS011;9053;53.358;6.382;2023-03-01T09:34:43;19.63;;;13.47;;
17854;SDS011;9053;53.358;6.382;2023-03-01T09:37:26;20.87;;;15.37;;
17854;SDS011;9053;53.358;6.382;2023-03-01T09:39:56;25.27;;;17.37;;
17854;SDS011;9053;53.358;6.382;2023-03-01T09:42:26;25.77;;;17.47;;
17854;SDS011;9053;53.358;6.382;2023-03-01T09:45:00;26.70;;;17.67;;
17854;SDS011;9053;53.358;6.382;2023-03-01T09:47:34;25.33;;;17.17;;
17854;SDS011;9053;53.358;6.382;2023-03-01T09:50:11;25.50;;;16.80;;
17854;SDS011;9053;53.358;6.382;2023-03-01T09:52:45;23.53;;;16.40;;
17854;SDS011;9053;53.358;6.382;2023-03-01T09:55:23;20.97;;;15.10;;
17854;SDS011;9053;53.358;6.382;2023-03-01T09:57:58;18.43;;;13.43;;
17854;SDS011;9053;53.358;6.382;2023-03-01T10:00:37;20.07;;;13.97;;
17854;SDS011;9053;53.358;6.382;2023-03-01T10:03:12;17.83;;;13.03;;
17854;SDS011;9053;53.358;6.382;2023-03-01T10:05:52;22.87;;;15.77;;
17854;SDS011;9053;53.358;6.382;2023-03-01T10:08:30;24.43;;;15.83;;
17854;SDS011;9053;53.358;6.382;2023-03-01T10:11:05;20.43;;;14.93;;
17854;SDS011;9053;53.358;6.382;2023-03-01T10:13:52;18.00;;;13.33;;
17854;SDS011;9053;53.358;6.382;2023-03-01T10:16:27;17.83;;;13.00;;
17854;SDS011;9053;53.358;6.382;2023-03-01T10:19:02;17.97;;;13.37;;
17854;SDS011;9053;53.358;6.382;2023-03-01T10:21:38;14.70;;;11.60;;
17854;SDS011;9053;53.358;6.382;2023-03-01T10:24:14;18.60;;;12.77;;
17854;SDS011;9053;53.358;6.382;2023-03-01T10:26:53;18.37;;;12.83;;
17854;SDS011;9053;53.358;6.382;2023-03-01T10:29:26;15.40;;;12.63;;
17854;SDS011;9053;53.358;6.382;2023-03-01T10:32:00;17.17;;;12.03;;
17854;SDS011;9053;53.358;6.382;2023-03-01T10:34:35;15.20;;;11.60;;
17854;SDS011;9053;53.358;6.382;2023-03-01T10:37:12;17.30;;;12.73;;
17854;SDS011;9053;53.358;6.382;2023-03-01T10:39:54;15.60;;;11.67;;
17854;SDS011;9053;53.358;6.382;2023-03-01T10:42:27;23.27;;;13.20;;
17854;SDS011;9053;53.358;6.382;2023-03-01T10:44:58;17.93;;;12.77;;
17854;SDS011;9053;53.358;6.382;2023-03-01T10:47:45;18.27;;;12.97;;
17854;SDS011;9053;53.358;6.382;2023-03-01T10:50:19;16.60;;;13.50;;
17854;SDS011;9053;53.358;6.382;2023-03-01T10:53:00;20.50;;;13.73;;
17854;SDS011;9053;53.358;6.382;2023-03-01T10:55:33;18.63;;;13.60;;
17854;SDS011;9053;53.358;6.382;2023-03-01T10:58:07;18.47;;;12.77;;
17854;SDS011;9053;53.358;6.382;2023-03-01T11:00:46;16.53;;;12.20;;
17854;SDS011;9053;53.358;6.382;2023-03-01T11:03:18;19.87;;;12.00;;
17854;SDS011;9053;53.358;6.382;2023-03-01T11:05:52;15.20;;;11.63;;
17854;SDS011;9053;53.358;6.382;2023-03-01T11:11:21;14.00;;;10.83;;
17854;SDS011;9053;53.358;6.382;2023-03-01T11:13:55;16.10;;;11.63;;
17854;SDS011;9053;53.358;6.382;2023-03-01T11:16:28;16.40;;;11.07;;
17854;SDS011;9053;53.358;6.382;2023-03-01T11:19:12;19.03;;;16.10;;
17854;SDS011;9053;53.358;6.382;2023-03-01T11:21:48;16.90;;;11.23;;
17854;SDS011;9053;53.358;6.382;2023-03-01T11:24:33;16.73;;;11.97;;
17854;SDS011;9053;53.358;6.382;2023-03-01T11:27:13;18.23;;;12.53;;
17854;SDS011;9053;53.358;6.382;2023-03-01T11:29:46;14.80;;;10.27;;
17854;SDS011;9053;53.358;6.382;2023-03-01T11:32:22;14.90;;;10.13;;
17854;SDS011;9053;53.358;6.382;2023-03-01T11:34:57;15.73;;;11.43;;
17854;SDS011;9053;53.358;6.382;2023-03-01T11:37:32;15.30;;;10.27;;
17854;SDS011;9053;53.358;6.382;2023-03-01T11:40:26;13.83;;;9.50;;
17854;SDS011;9053;53.358;6.382;2023-03-01T11:43:01;14.57;;;9.67;;
17854;SDS011;9053;53.358;6.382;2023-03-01T11:58:21;11.77;;;8.43;;
17854;SDS011;9053;53.358;6.382;2023-03-01T12:01:02;13.30;;;8.97;;
17854;SDS011;9053;53.358;6.382;2023-03-01T12:03:51;13.73;;;10.23;;
17854;SDS011;9053;53.358;6.382;2023-03-01T12:06:46;13.80;;;9.97;;
17854;SDS011;9053;53.358;6.382;2023-03-01T12:12:25;13.13;;;9.53;;
17854;SDS011;9053;53.358;6.382;2023-03-01T12:15:11;16.27;;;9.70;;
17854;SDS011;9053;53.358;6.382;2023-03-01T12:18:06;13.27;;;8.70;;
17854;SDS011;9053;53.358;6.382;2023-03-01T12:20:46;12.50;;;8.73;;
17854;SDS011;9053;53.358;6.382;2023-03-01T12:26:44;13.67;;;9.03;;
17854;SDS011;9053;53.358;6.382;2023-03-01T12:29:25;12.93;;;8.90;;
17854;SDS011;9053;53.358;6.382;2023-03-01T12:38:01;13.80;;;9.40;;
17854;SDS011;9053;53.358;6.382;2023-03-01T12:40:46;12.60;;;8.73;;
17854;SDS011;9053;53.358;6.382;2023-03-01T12:43:34;13.53;;;9.37;;
17854;SDS011;9053;53.358;6.382;2023-03-01T12:46:16;14.00;;;9.73;;
17854;SDS011;9053;53.358;6.382;2023-03-01T12:48:59;12.73;;;8.97;;
17854;SDS011;9053;53.358;6.382;2023-03-01T12:51:37;11.60;;;9.27;;
17854;SDS011;9053;53.358;6.382;2023-03-01T12:54:11;10.93;;;8.30;;
17854;SDS011;9053;53.358;6.382;2023-03-01T12:56:45;13.83;;;8.80;;
17854;SDS011;9053;53.358;6.382;2023-03-01T12:59:19;11.63;;;8.83;;
17854;SDS011;9053;53.358;6.382;2023-03-01T13:01:56;13.87;;;9.30;;
17854;SDS011;9053;53.358;6.382;2023-03-01T13:04:39;13.07;;;9.50;;
17854;SDS011;9053;53.358;6.382;2023-03-01T13:07:21;13.90;;;9.07;;
17854;SDS011;9053;53.358;6.382;2023-03-01T13:10:01;10.87;;;8.73;;
17854;SDS011;9053;53.358;6.382;2023-03-01T13:12:51;12.00;;;8.20;;
17854;SDS011;9053;53.358;6.382;2023-03-01T13:15:33;11.93;;;8.37;;
17854;SDS011;9053;53.358;6.382;2023-03-01T13:20:56;11.17;;;8.33;;
17854;SDS011;9053;53.358;6.382;2023-03-01T13:23:33;12.43;;;8.33;;
17854;SDS011;9053;53.358;6.382;2023-03-01T13:26:21;11.17;;;8.47;;
17854;SDS011;9053;53.358;6.382;2023-03-01T13:28:52;11.47;;;8.27;;
17854;SDS011;9053;53.358;6.382;2023-03-01T13:34:44;13.07;;;8.70;;
17854;SDS011;9053;53.358;6.382;2023-03-01T13:37:23;13.47;;;9.10;;
17854;SDS011;9053;53.358;6.382;2023-03-01T13:40:00;14.03;;;9.00;;
17854;SDS011;9053;53.358;6.382;2023-03-01T13:42:38;12.40;;;9.30;;
17854;SDS011;9053;53.358;6.382;2023-03-01T13:45:33;12.17;;;8.50;;
17854;SDS011;9053;53.358;6.382;2023-03-01T13:48:08;11.80;;;8.63;;
17854;SDS011;9053;53.358;6.382;2023-03-01T13:50:45;12.30;;;8.63;;
17854;SDS011;9053;53.358;6.382;2023-03-01T13:53:23;13.30;;;9.30;;
17854;SDS011;9053;53.358;6.382;2023-03-01T13:55:55;13.33;;;9.63;;
17854;SDS011;9053;53.358;6.382;2023-03-01T13:58:30;12.53;;;9.20;;
17854;SDS011;9053;53.358;6.382;2023-03-01T14:01:05;12.50;;;9.03;;
17854;SDS011;9053;53.358;6.382;2023-03-01T14:03:40;13.97;;;9.90;;
17854;SDS011;9053;53.358;6.382;2023-03-01T14:06:13;12.10;;;9.23;;
17854;SDS011;9053;53.358;6.382;2023-03-01T14:08:49;15.40;;;9.17;;
17854;SDS011;9053;53.358;6.382;2023-03-01T14:11:48;15.00;;;9.77;;
17854;SDS011;9053;53.358;6.382;2023-03-01T14:14:39;12.67;;;9.90;;
17854;SDS011;9053;53.358;6.382;2023-03-01T14:17:23;13.17;;;9.53;;
17854;SDS011;9053;53.358;6.382;2023-03-01T14:20:08;10.93;;;9.20;;
17854;SDS011;9053;53.358;6.382;2023-03-01T14:22:41;13.13;;;10.03;;
17854;SDS011;9053;53.358;6.382;2023-03-01T14:25:20;11.90;;;9.30;;
17854;SDS011;9053;53.358;6.382;2023-03-01T14:27:56;12.63;;;9.37;;
17854;SDS011;9053;53.358;6.382;2023-03-01T14:30:32;13.03;;;9.87;;
17854;SDS011;9053;53.358;6.382;2023-03-01T14:33:17;12.13;;;9.03;;
17854;SDS011;9053;53.358;6.382;2023-03-01T14:35:52;14.63;;;9.90;;
17854;SDS011;9053;53.358;6.382;2023-03-01T14:38:30;14.43;;;9.83;;
17854;SDS011;9053;53.358;6.382;2023-03-01T14:41:06;14.20;;;10.77;;
17854;SDS011;9053;53.358;6.382;2023-03-01T14:43:39;13.97;;;9.80;;
17854;SDS011;9053;53.358;6.382;2023-03-01T14:46:17;14.17;;;10.20;;
17854;SDS011;9053;53.358;6.382;2023-03-01T14:48:50;16.33;;;11.10;;
17854;SDS011;9053;53.358;6.382;2023-03-01T14:51:21;19.60;;;14.67;;
17854;SDS011;9053;53.358;6.382;2023-03-01T14:53:52;23.20;;;15.60;;
17854;SDS011;9053;53.358;6.382;2023-03-01T14:56:28;25.43;;;16.50;;
17854;SDS011;9053;53.358;6.382;2023-03-01T14:59:13;22.47;;;15.43;;
17854;SDS011;9053;53.358;6.382;2023-03-01T15:01:43;21.07;;;15.10;;
17854;SDS011;9053;53.358;6.382;2023-03-01T15:04:14;24.10;;;16.30;;
17854;SDS011;9053;53.358;6.382;2023-03-01T15:06:44;20.33;;;15.57;;
17854;SDS011;9053;53.358;6.382;2023-03-01T15:09:14;23.10;;;16.30;;
17854;SDS011;9053;53.358;6.382;2023-03-01T15:14:52;22.77;;;15.40;;
17854;SDS011;9053;53.358;6.382;2023-03-01T15:17:30;21.53;;;15.37;;
17854;SDS011;9053;53.358;6.382;2023-03-01T15:20:03;22.13;;;15.93;;
17854;SDS011;9053;53.358;6.382;2023-03-01T15:22:36;23.23;;;15.30;;
17854;SDS011;9053;53.358;6.382;2023-03-01T15:25:13;23.70;;;14.97;;
17854;SDS011;9053;53.358;6.382;2023-03-01T15:27:45;24.47;;;15.90;;
17854;SDS011;9053;53.358;6.382;2023-03-01T15:30:20;20.57;;;14.73;;
17854;SDS011;9053;53.358;6.382;2023-03-01T15:35:49;20.50;;;14.47;;
17854;SDS011;9053;53.358;6.382;2023-03-01T15:38:28;19.93;;;14.43;;
17854;SDS011;9053;53.358;6.382;2023-03-01T15:41:00;22.20;;;14.33;;
17854;SDS011;9053;53.358;6.382;2023-03-01T15:43:42;19.70;;;14.47;;
17854;SDS011;9053;53.358;6.382;2023-03-01T15:46:20;22.20;;;14.60;;
17854;SDS011;9053;53.358;6.382;2023-03-01T15:48:55;22.60;;;15.43;;
17854;SDS011;9053;53.358;6.382;2023-03-01T15:51:27;23.33;;;14.93;;
17854;SDS011;9053;53.358;6.382;2023-03-01T15:54:00;19.63;;;14.30;;
17854;SDS011;9053;53.358;6.382;2023-03-01T15:56:33;20.50;;;13.50;;
17854;SDS011;9053;53.358;6.382;2023-03-01T15:59:03;24.20;;;15.33;;
17854;SDS011;9053;53.358;6.382;2023-03-01T16:01:36;19.73;;;13.83;;
17854;SDS011;9053;53.358;6.382;2023-03-01T16:04:06;24.93;;;15.17;;
17854;SDS011;9053;53.358;6.382;2023-03-01T16:06:36;25.30;;;15.67;;
17854;SDS011;9053;53.358;6.382;2023-03-01T16:09:06;23.53;;;15.87;;
17854;SDS011;9053;53.358;6.382;2023-03-01T16:11:36;22.33;;;14.70;;
17854;SDS011;9053;53.358;6.382;2023-03-01T16:14:08;27.13;;;15.23;;
17854;SDS011;9053;53.358;6.382;2023-03-01T16:16:41;21.37;;;14.77;;
17854;SDS011;9053;53.358;6.382;2023-03-01T16:19:11;22.07;;;14.27;;